Time;durP1;ratioP1;P1;durP2;ratioP2;P2;SDS_P1;SDS_P2;PMS_P1;PMS_P2;Temp;Humidity;BMP_temperature;BMP_pressure;BME280_temperature;BME280_humidity;BME280_pressure;Samples;Min_cycle;Max_cycle;Signal;HPM_P1;HPM_P2
2022/02/24 00:01:17;;;;;;;3.63;2.25;;;;;;;0.41;100.00;95260.09;5054743;28;20021;-67
2022/02/24 00:03:42;;;;;;;5.82;2.25;;;;;;;0.40;100.00;95256.66;5054198;28;20040;-67
2022/02/24 00:06:07;;;;;;;2.63;2.15;;;;;;;0.37;100.00;95251.78;5054248;28;20033;-67
2022/02/24 00:08:39;;;;;;;3.60;2.40;;;;;;;0.32;100.00;95251.56;5054309;28;20075;-66
2022/02/24 00:11:10;;;;;;;3.45;2.42;;;;;;;0.33;100.00;95250.56;5053024;28;20100;-68
2022/02/24 00:13:35;;;;;;;2.95;2.13;;;;;;;0.29;100.00;95252.78;5054432;28;20044;-68
2022/02/24 00:16:01;;;;;;;2.55;2.00;;;;;;;0.33;100.00;95257.66;5054244;28;20051;-67
2022/02/24 00:18:34;;;;;;;4.40;2.50;;;;;;;0.33;100.00;95257.66;5053952;28;20052;-67
2022/02/24 00:21:12;;;;;;;;;;;;;;;0.27;100.00;95257.44;5054527;28;20051;-68
2022/02/24 00:23:47;;;;;;;3.65;2.00;;;;;;;0.25;100.00;95251.53;5054072;28;20312;-68
2022/02/24 00:26:13;;;;;;;3.85;2.10;;;;;;;0.22;100.00;95256.41;5052752;28;20529;-67
2022/02/24 00:28:41;;;;;;;5.13;2.10;;;;;;;0.17;100.00;95249.06;5053854;28;20032;-67
2022/02/24 00:31:17;;;;;;;2.92;2.30;;;;;;;0.15;100.00;95259.00;5053895;28;20021;-67
2022/02/24 00:33:43;;;;;;;1.88;1.70;;;;;;;0.21;100.00;95255.56;5036300;28;20025;-68
2022/02/24 00:36:11;;;;;;;4.70;2.30;;;;;;;0.25;100.00;95251.53;5053788;28;20020;-67
2022/02/24 00:38:37;;;;;;;3.28;2.05;;;;;;;0.28;100.00;95251.16;5053775;28;20395;-67
2022/02/24 00:41:05;;;;;;;2.50;1.80;;;;;;;0.30;100.00;95253.56;5053691;28;20025;-67
2022/02/24 00:43:30;;;;;;;6.90;2.30;;;;;;;-144.43;100.00;64487.81;5053280;28;20060;-68
2022/02/24 00:45:58;;;;;;;3.35;2.22;;;;;;;-144.43;100.00;64487.81;5052527;28;20112;-67
2022/02/24 00:48:30;;;;;;;3.40;2.10;;;;;;;-144.43;100.00;64487.81;5053566;28;20401;-68
2022/02/24 00:50:55;;;;;;;2.40;1.88;;;;;;;-144.43;100.00;64487.81;5053525;28;20057;-67
2022/02/24 00:53:20;;;;;;;3.50;2.10;;;;;;;-144.43;100.00;64487.81;5052113;28;20049;-67
2022/02/24 00:55:46;;;;;;;3.42;2.40;;;;;;;-144.43;100.00;64487.81;5053301;28;20033;-67
2022/02/24 00:58:11;;;;;;;3.22;1.90;;;;;;;-144.43;100.00;64487.81;5053424;28;20024;-67
2022/02/24 01:00:37;;;;;;;4.40;1.85;;;;;;;-144.43;100.00;64487.81;5052102;28;20071;-68
2022/02/24 01:03:08;;;;;;;2.67;2.13;;;;;;;-144.43;100.00;64487.81;5053265;28;20063;-67
2022/02/24 01:05:49;;;;;;;2.33;2.00;;;;;;;-144.43;100.00;64487.81;5053187;28;20029;-67
2022/02/24 01:08:14;;;;;;;4.88;2.50;;;;;;;-144.43;100.00;64487.81;5051836;28;20487;-66
2022/02/24 01:10:41;;;;;;;2.17;1.75;;;;;;;-144.43;100.00;64487.81;5051915;28;20057;-67
2022/02/24 01:13:12;;;;;;;3.65;2.10;;;;;;;-144.43;100.00;64487.81;5051701;28;20036;-67
2022/02/24 01:15:41;;;;;;;3.78;2.28;;;;;;;-144.43;100.00;64487.81;5051805;28;20028;-67
2022/02/24 01:18:07;;;;;;;3.35;2.03;;;;;;;-144.43;100.00;64487.81;5052890;28;20036;-67
2022/02/24 01:20:35;;;;;;;4.72;1.98;;;;;;;-144.43;100.00;64487.81;5052827;28;20476;-67
2022/02/24 01:23:05;;;;;;;4.47;2.30;;;;;;;-144.43;100.00;64487.81;5052655;28;20021;-67
2022/02/24 01:25:38;;;;;;;2.80;2.10;;;;;;;-144.43;100.00;64487.81;5051673;28;20384;-67
2022/02/24 01:28:06;;;;;;;3.65;2.25;;;;;;;-144.43;100.00;64487.81;5052831;28;20029;-67
2022/02/24 01:30:32;;;;;;;2.28;1.70;;;;;;;-144.43;100.00;64487.81;5052770;28;20023;-68
2022/02/24 01:33:01;;;;;;;2.63;1.85;;;;;;;-144.43;100.00;64487.81;5052670;28;20029;-66
2022/02/24 01:35:27;;;;;;;4.32;1.85;;;;;;;-144.43;100.00;64487.81;5052522;28;20415;-67
2022/02/24 01:37:52;;;;;;;2.28;1.73;;;;;;;-144.43;100.00;64487.81;5051396;28;20037;-66
2022/02/24 01:40:17;;;;;;;3.03;1.85;;;;;;;-144.43;100.00;64487.81;5051066;28;20029;-67
2022/02/24 01:42:46;;;;;;;2.13;1.67;;;;;;;-144.43;100.00;64487.81;5052095;28;20045;-67
2022/02/24 01:45:24;;;;;;;2.97;1.70;;;;;;;-144.43;100.00;64487.81;5051214;28;20029;-67
2022/02/24 01:47:49;;;;;;;2.38;1.90;;;;;;;-144.43;100.00;64487.81;5051534;28;20090;-66
2022/02/24 01:50:17;;;;;;;4.05;1.63;;;;;;;-144.43;100.00;64487.81;5052392;28;20438;-66
2022/02/24 01:52:47;;;;;;;4.22;1.75;;;;;;;-144.43;100.00;64487.81;5052428;28;20028;-67
2022/02/24 01:55:13;;;;;;;2.78;1.73;;;;;;;-144.43;100.00;64487.81;5052357;28;20025;-67
2022/02/24 01:57:38;;;;;;;3.70;1.80;;;;;;;-144.43;100.00;64487.81;5052686;28;20464;-67
2022/02/24 02:00:10;;;;;;;2.05;1.70;;;;;;;-144.43;100.00;64487.81;5052325;28;20402;-67
2022/02/24 02:02:35;;;;;;;3.65;1.80;;;;;;;-144.43;100.00;64487.81;5050704;28;20028;-67
2022/02/24 02:05:02;;;;;;;2.88;1.65;;;;;;;-144.43;100.00;64487.81;5051006;28;20121;-67
2022/02/24 02:07:32;;;;;;;3.17;1.95;;;;;;;-144.43;100.00;64487.81;5051008;28;20052;-67
2022/02/24 02:09:58;;;;;;;2.97;1.60;;;;;;;-144.43;100.00;64487.81;5052325;28;20387;-67
2022/02/24 02:12:24;;;;;;;2.50;1.75;;;;;;;-144.43;100.00;64487.81;5052499;28;20032;-66
2022/02/24 02:14:52;;;;;;;2.92;1.70;;;;;;;-144.43;100.00;64487.81;5052134;28;20028;-67
2022/02/24 02:17:22;;;;;;;4.72;1.42;;;;;;;-144.43;100.00;64487.81;5052261;28;20463;-67
2022/02/24 02:19:48;;;;;;;3.28;1.80;;;;;;;-144.43;100.00;64487.81;5052260;28;20033;-66
2022/02/24 02:22:13;;;;;;;3.40;1.80;;;;;;;-144.43;100.00;64487.81;5051993;28;20522;-67
2022/02/24 02:24:59;;;;;;;2.60;1.70;;;;;;;-144.43;100.00;64487.81;5051340;28;20072;-67
2022/02/24 02:27:24;;;;;;;4.85;1.90;;;;;;;-144.43;100.00;64487.81;5051960;28;20127;-65
2022/02/24 02:29:53;;;;;;;2.92;1.65;;;;;;;-144.43;100.00;64487.81;5050817;28;20037;-67
2022/02/24 02:32:18;;;;;;;2.13;1.35;;;;;;;-144.43;100.00;64487.81;5052044;28;20495;-67
2022/02/24 02:34:43;;;;;;;3.88;1.70;;;;;;;-144.43;100.00;64487.81;5051946;28;20024;-67
2022/02/24 02:37:09;;;;;;;4.93;2.10;;;;;;;-144.43;100.00;64487.81;5051932;28;20033;-67
2022/02/24 02:39:42;;;;;;;2.10;1.70;;;;;;;-144.43;100.00;64487.81;5050822;28;20531;-66
2022/02/24 02:42:08;;;;;;;2.30;1.73;;;;;;;-144.43;100.00;64487.81;5051544;28;20044;-66
2022/02/24 02:44:36;;;;;;;2.33;1.70;;;;;;;-144.43;100.00;64487.81;5052048;28;20029;-67
2022/02/24 02:47:04;;;;;;;5.05;1.67;;;;;;;-144.43;100.00;64487.81;5050750;28;20506;-67
2022/02/24 02:49:38;;;;;;;2.80;1.70;;;;;;;-144.43;100.00;64487.81;5051025;28;20028;-67
2022/02/24 02:52:05;;;;;;;2.13;1.50;;;;;;;-144.43;100.00;64487.81;5050478;28;20017;-66
2022/02/24 02:54:31;;;;;;;2.30;1.60;;;;;;;-144.43;100.00;64487.81;5054784;28;20061;-67
2022/02/24 02:56:56;;;;;;;3.17;1.73;;;;;;;-144.43;100.00;64487.81;5054861;28;20056;-67
2022/02/24 02:59:24;;;;;;;1.67;1.58;;;;;;;-144.43;100.00;64487.81;5055668;28;20021;-67
2022/02/24 03:01:51;;;;;;;2.80;1.58;;;;;;;-144.43;100.00;64487.81;5055430;28;20038;-67
2022/02/24 03:04:19;;;;;;;3.15;1.33;;;;;;;-144.43;100.00;64487.81;5055742;28;20028;-67
2022/02/24 03:06:47;;;;;;;3.10;1.60;;;;;;;-144.43;100.00;64487.81;5055474;28;20460;-67
2022/02/24 03:09:19;;;;;;;6.32;1.48;;;;;;;-144.43;100.00;64487.81;5055376;28;20378;-67
2022/02/24 03:11:49;;;;;;;4.00;1.70;;;;;;;-144.43;100.00;64487.81;5055363;28;20064;-67
2022/02/24 03:14:25;;;;;;;2.15;1.63;;;;;;;-144.43;100.00;64487.81;5054078;28;20032;-67
2022/02/24 03:16:53;;;;;;;2.00;1.50;;;;;;;-144.43;100.00;64487.81;5055386;28;20440;-67
2022/02/24 03:19:21;;;;;;;1.95;1.63;;;;;;;-144.43;100.00;64487.81;5055287;28;20372;-67
2022/02/24 03:21:55;;;;;;;2.67;1.42;;;;;;;-144.43;100.00;64487.81;5053667;28;20029;-67
2022/02/24 03:24:24;;;;;;;3.17;1.70;;;;;;;-144.43;100.00;64487.81;5054018;28;20060;-67
2022/02/24 03:26:59;;;;;;;4.80;1.77;;;;;;;-144.43;100.00;64487.81;5055140;28;20028;-66
2022/02/24 03:29:34;;;;;;;2.08;1.65;;;;;;;-144.43;100.00;64487.81;5055182;28;20029;-66
2022/02/24 03:32:02;;;;;;;2.05;1.55;;;;;;;-144.43;100.00;64487.81;5054946;28;20416;-66
2022/02/24 03:34:28;;;;;;;2.65;1.83;;;;;;;-144.43;100.00;64487.81;5054973;28;20083;-67
2022/02/24 03:36:56;;;;;;;2.90;1.73;;;;;;;-144.43;100.00;64487.81;5054931;28;20025;-66
2022/02/24 03:39:21;;;;;;;1.70;1.58;;;;;;;-144.43;100.00;64487.81;5054929;28;20070;-67
2022/02/24 03:41:51;;;;;;;2.53;1.58;;;;;;;-144.43;100.00;64487.81;5053156;28;20057;-67
2022/02/24 03:44:22;;;;;;;2.28;1.80;;;;;;;-144.43;100.00;64487.81;5053470;28;20119;-67
2022/02/24 03:46:48;;;;;;;3.83;1.75;;;;;;;-144.43;100.00;64487.81;5054592;28;20025;-67
2022/02/24 03:49:13;;;;;;;2.15;1.60;;;;;;;-144.43;100.00;64487.81;5054726;28;20032;-67
2022/02/24 03:51:38;;;;;;;5.90;1.92;;;;;;;-144.43;100.00;64487.81;5053220;28;20025;-66
2022/02/24 03:54:09;;;;;;;2.75;1.80;;;;;;;-144.43;100.00;64487.81;5054585;28;20100;-67
2022/02/24 03:56:37;;;;;;;3.05;1.88;;;;;;;-144.43;100.00;64487.81;5054699;28;20214;-67
2022/02/24 03:59:05;;;;;;;3.53;1.88;;;;;;;-144.43;100.00;64487.81;5054511;28;20060;-67
2022/02/24 04:01:33;;;;;;;3.42;1.73;;;;;;;-144.43;100.00;64487.81;5054394;28;20067;-66
2022/02/24 04:04:01;;;;;;;3.20;1.73;;;;;;;-144.43;100.00;64487.81;5052817;28;20029;-66
2022/02/24 04:06:34;;;;;;;2.42;1.52;;;;;;;-144.43;100.00;64487.81;5054736;28;20386;-66
2022/02/24 04:09:00;;;;;;;2.03;1.77;;;;;;;-144.43;100.00;64487.81;5054623;28;20037;-66
2022/02/24 04:11:28;;;;;;;2.58;1.85;;;;;;;-144.43;100.00;64487.81;5054124;28;20448;-66
2022/02/24 04:13:54;;;;;;;3.65;1.98;;;;;;;-144.43;100.00;64487.81;5054139;28;20064;-66
2022/02/24 04:16:19;;;;;;;2.30;1.95;;;;;;;-144.43;100.00;64487.81;5054292;28;20053;-66
2022/02/24 04:18:44;;;;;;;2.28;1.98;;;;;;;-144.43;100.00;64487.81;5054186;28;20025;-66
2022/02/24 04:21:10;;;;;;;2.95;2.10;;;;;;;-144.43;100.00;64487.81;5054060;28;20056;-66
2022/02/24 04:23:38;;;;;;;2.08;1.50;;;;;;;-144.43;100.00;64487.81;5053979;28;20522;-66
2022/02/24 04:26:03;;;;;;;3.67;1.83;;;;;;;-144.43;100.00;64487.81;5054039;28;20029;-66
2022/02/24 04:28:29;;;;;;;2.22;1.70;;;;;;;-144.43;100.00;64487.81;5054140;28;20454;-66
2022/02/24 04:31:00;;;;;;;3.45;1.48;;;;;;;-144.43;100.00;64487.81;5053966;28;20040;-66
2022/02/24 04:33:28;;;;;;;2.20;1.73;;;;;;;-144.43;100.00;64487.81;5053788;28;20103;-66
2022/02/24 04:35:54;;;;;;;4.22;1.80;;;;;;;-144.43;100.00;64487.81;5052655;28;20025;-66
2022/02/24 04:38:19;;;;;;;2.35;1.60;;;;;;;-144.43;100.00;64487.81;5052461;28;20036;-65
2022/02/24 04:40:44;;;;;;;2.38;1.60;;;;;;;-144.43;100.00;64487.81;5053592;28;20021;-67
2022/02/24 04:43:10;;;;;;;1.92;1.52;;;;;;;-144.43;100.00;64487.81;5052776;28;20186;-67
2022/02/24 04:45:40;;;;;;;1.83;1.50;;;;;;;-144.43;100.00;64487.81;5053523;28;20025;-66
2022/02/24 04:48:10;;;;;;;1.95;1.40;;;;;;;-144.43;100.00;64487.81;5053614;28;20029;-64
2022/02/24 04:50:41;;;;;;;2.67;1.42;;;;;;;-144.43;100.00;64487.81;5053568;28;20152;-65
2022/02/24 04:53:06;;;;;;;1.90;1.35;;;;;;;-144.43;100.00;64487.81;5052128;28;20021;-65
2022/02/24 04:55:37;;;;;;;2.83;1.42;;;;;;;-144.43;100.00;64487.81;5053330;28;20029;-65
2022/02/24 04:58:09;;;;;;;2.35;1.40;;;;;;;-144.43;100.00;64487.81;5053345;28;20107;-65
2022/02/24 05:00:34;;;;;;;1.50;1.17;;;;;;;-144.43;100.00;64487.81;5053442;28;20499;-66
2022/02/24 05:03:00;;;;;;;3.13;1.60;;;;;;;-144.43;100.00;64487.81;5053285;28;20044;-65
2022/02/24 05:05:31;;;;;;;2.13;1.50;;;;;;;-144.43;100.00;64487.81;5053272;28;20029;-66
2022/02/24 05:07:59;;;;;;;2.72;1.77;;;;;;;-144.43;100.00;64487.81;5051840;28;20028;-64
2022/02/24 05:10:28;;;;;;;2.38;1.65;;;;;;;-144.43;100.00;64487.81;5051899;28;20043;-65
2022/02/24 05:12:55;;;;;;;1.55;1.20;;;;;;;-144.43;100.00;64487.81;5053190;28;20053;-65
2022/02/24 05:15:23;;;;;;;2.47;1.50;;;;;;;-144.43;100.00;64487.81;5052666;28;20029;-65
2022/02/24 05:18:02;;;;;;;1.65;1.30;;;;;;;-144.43;100.00;64487.81;5051621;28;20107;-64
2022/02/24 05:20:28;;;;;;;2.10;1.40;;;;;;;-144.43;100.00;64487.81;5052979;28;20025;-64
2022/02/24 05:22:53;;;;;;;1.63;1.17;;;;;;;-144.43;100.00;64487.81;5051636;28;20021;-64
2022/02/24 05:25:19;;;;;;;2.13;1.38;;;;;;;-144.43;100.00;64487.81;5052971;28;20546;-62
2022/02/24 05:27:45;;;;;;;3.80;1.63;;;;;;;-144.43;100.00;64487.81;5052994;28;20063;-64
2022/02/24 05:30:16;;;;;;;3.70;1.50;;;;;;;-144.43;100.00;64487.81;5052851;28;20487;-64
2022/02/24 05:32:42;;;;;;;5.63;2.10;;;;;;;-144.43;100.00;64487.81;5051419;28;20036;-64
2022/02/24 05:35:11;;;;;;;2.33;1.42;;;;;;;-144.43;100.00;64487.81;5052644;28;20025;-65
2022/02/24 05:37:36;;;;;;;1.90;1.38;;;;;;;-144.43;100.00;64487.81;5051406;28;20039;-65
2022/02/24 05:40:03;;;;;;;2.50;1.52;;;;;;;-144.43;100.00;64487.81;5052753;28;20536;-64
2022/02/24 05:42:31;;;;;;;3.92;1.30;;;;;;;-144.43;100.00;64487.81;5052364;28;20103;-63
2022/02/24 05:44:57;;;;;;;2.88;1.30;;;;;;;-144.43;100.00;64487.81;5052618;28;20028;-65
2022/02/24 05:47:22;;;;;;;2.13;1.17;;;;;;;-144.43;100.00;64487.81;5052606;28;20159;-63
2022/02/24 05:49:51;;;;;;;1.77;1.13;;;;;;;-144.43;100.00;64487.81;5052475;28;20033;-63
2022/02/24 05:52:19;;;;;;;1.95;1.10;;;;;;;-144.43;100.00;64487.81;5052313;28;20028;-62
2022/02/24 05:54:47;;;;;;;2.95;1.30;;;;;;;-144.43;100.00;64487.81;5051179;28;20056;-63
2022/02/24 05:57:13;;;;;;;1.83;1.10;;;;;;;-144.43;100.00;64487.81;5052473;28;20501;-63
2022/02/24 05:59:38;;;;;;;1.40;1.00;;;;;;;-144.43;100.00;64487.81;5052426;28;20035;-63
2022/02/24 06:02:04;;;;;;;3.58;1.20;;;;;;;-144.43;100.00;64487.81;5052223;28;20118;-62
2022/02/24 06:04:29;;;;;;;1.75;1.40;;;;;;;-144.43;100.00;64487.81;5051054;28;20024;-61
2022/02/24 06:06:55;;;;;;;1.67;1.05;;;;;;;-144.43;100.00;64487.81;5052261;28;20024;-62
2022/02/24 06:09:25;;;;;;;1.75;1.20;;;;;;;-144.43;100.00;64487.81;5052343;28;20078;-62
2022/02/24 06:11:50;;;;;;;1.55;1.13;;;;;;;-144.43;100.00;64487.81;5050920;28;20109;-62
2022/02/24 06:14:16;;;;;;;2.10;1.10;;;;;;;-144.43;100.00;64487.81;5052296;28;20112;-63
2022/02/24 06:16:42;;;;;;;1.83;1.15;;;;;;;-144.43;100.00;64487.81;5052172;28;20100;-64
2022/02/24 06:19:07;;;;;;;1.95;1.10;;;;;;;-144.43;100.00;64487.81;5051087;28;20086;-63
2022/02/24 06:21:33;;;;;;;1.40;1.30;;;;;;;-144.43;100.00;64487.81;5045187;28;20017;-63
2022/02/24 06:23:58;;;;;;;2.13;1.20;;;;;;;-144.43;100.00;64487.81;5021867;28;20320;-65
2022/02/24 06:26:23;;;;;;;1.98;1.00;;;;;;;-144.43;100.00;64487.81;5033074;28;20159;-63
2022/02/24 06:28:49;;;;;;;1.65;0.93;;;;;;;-144.43;100.00;64487.81;5031767;28;20021;-61
2022/02/24 06:31:14;;;;;;;2.15;1.20;;;;;;;-144.43;100.00;64487.81;5035216;28;20033;-62
2022/02/24 06:33:39;;;;;;;2.30;1.20;;;;;;;-144.43;100.00;64487.81;5032599;28;20472;-63
2022/02/24 06:36:05;;;;;;;1.45;1.00;;;;;;;-144.43;100.00;64487.81;5033179;28;20030;-62
2022/02/24 06:38:30;;;;;;;1.33;1.08;;;;;;;-144.43;100.00;64487.81;5034647;28;20032;-62
2022/02/24 06:40:59;;;;;;;1.73;1.20;;;;;;;-144.43;100.00;64487.81;5033066;28;20163;-64
2022/02/24 06:43:25;;;;;;;1.20;1.00;;;;;;;-144.43;100.00;64487.81;5033940;28;20053;-63
2022/02/24 06:45:51;;;;;;;4.45;1.20;;;;;;;-144.43;100.00;64487.81;5034600;28;20106;-66
2022/02/24 06:48:16;;;;;;;1.70;0.93;;;;;;;-144.43;100.00;64487.81;5034305;28;20067;-61
2022/02/24 06:50:43;;;;;;;1.30;1.00;;;;;;;-144.43;100.00;64487.81;5029701;28;20036;-60
2022/02/24 06:53:09;;;;;;;1.85;1.00;;;;;;;-144.43;100.00;64487.81;5033930;28;20017;-61
2022/02/24 06:55:37;;;;;;;1.27;0.90;;;;;;;-144.43;100.00;64487.81;5035110;28;20029;-60
2022/02/24 06:58:06;;;;;;;1.92;1.35;;;;;;;-144.43;100.00;64487.81;5030597;28;20025;-60
2022/02/24 07:00:31;;;;;;;1.92;1.48;;;;;;;-144.43;100.00;64487.81;5034395;28;20114;-63
2022/02/24 07:02:57;;;;;;;2.35;1.20;;;;;;;-144.43;100.00;64487.81;5032038;28;20064;-67
2022/02/24 07:05:22;;;;;;;3.95;1.02;;;;;;;-144.43;100.00;64487.81;5035560;28;20026;-62
2022/02/24 07:07:51;;;;;;;1.75;1.10;;;;;;;-144.43;100.00;64487.81;5032939;28;20025;-63
2022/02/24 07:10:28;;;;;;;2.22;1.20;;;;;;;-144.43;100.00;64487.81;5035586;28;20051;-63
2022/02/24 07:12:56;;;;;;;1.85;1.02;;;;;;;-144.43;100.00;64487.81;5030774;28;20369;-63
2022/02/24 07:15:21;;;;;;;1.80;1.10;;;;;;;-144.43;100.00;64487.81;5035598;28;20029;-63
2022/02/24 07:17:49;;;;;;;3.45;1.15;;;;;;;-144.43;100.00;64487.81;5034107;28;20491;-62
2022/02/24 07:20:19;;;;;;;2.67;1.38;;;;;;;-144.43;100.00;64487.81;5035616;28;20033;-64
2022/02/24 07:22:54;;;;;;;1.85;1.20;;;;;;;-144.43;100.00;64487.81;5018092;28;20377;-64
2022/02/24 07:25:21;;;;;;;3.38;1.00;;;;;;;-144.43;100.00;64487.81;5034487;28;20029;-63
2022/02/24 07:27:53;;;;;;;2.22;1.20;;;;;;;-144.43;100.00;64487.81;5035201;28;20118;-63
2022/02/24 07:30:19;;;;;;;1.40;1.02;;;;;;;-144.43;100.00;64487.81;5035239;28;20558;-62
2022/02/24 07:32:47;;;;;;;2.25;1.02;;;;;;;-144.43;100.00;64487.81;5033874;28;20109;-63
2022/02/24 07:35:13;;;;;;;2.47;1.10;;;;;;;-144.43;100.00;64487.81;5035158;28;20029;-64
2022/02/24 07:37:38;;;;;;;2.55;1.60;;;;;;;-144.43;100.00;64487.81;5033859;28;20036;-64
2022/02/24 07:40:13;;;;;;;1.38;1.10;;;;;;;-144.43;100.00;64487.81;5034332;28;20025;-65
2022/02/24 07:42:45;;;;;;;4.82;1.55;;;;;;;-144.43;100.00;64487.81;5032981;28;20056;-65
2022/02/24 07:45:13;;;;;;;2.70;1.90;;;;;;;-144.43;100.00;64487.81;5033816;28;20109;-65
2022/02/24 07:47:48;;;;;;;2.08;1.67;;;;;;;-144.43;100.00;64487.81;5035076;28;20021;-65
2022/02/24 07:50:14;;;;;;;2.95;1.67;;;;;;;-144.43;100.00;64487.81;5034807;28;20025;-66
2022/02/24 07:52:46;;;;;;;2.50;1.80;;;;;;;-144.43;100.00;64487.81;5034527;28;20025;-65
2022/02/24 07:55:32;;;;;;;5.60;1.60;;;;;;;-144.43;100.00;64487.81;5033005;28;20029;-65
2022/02/24 07:58:16;;;;;;;2.92;1.95;;;;;;;-144.43;100.00;64487.81;5033577;28;20043;-66
2022/02/24 08:00:47;;;;;;;2.78;1.52;;;;;;;-144.43;100.00;64487.81;5032408;28;20028;-65
2022/02/24 08:03:12;;;;;;;2.15;1.38;;;;;;;-144.43;100.00;64487.81;5033525;28;20504;-66
2022/02/24 08:05:44;;;;;;;3.20;1.40;;;;;;;-144.43;100.00;64487.81;5033159;28;20026;-66
2022/02/24 08:08:09;;;;;;;2.40;1.30;;;;;;;-144.43;100.00;64487.81;5033612;28;20806;-65
2022/02/24 08:10:38;;;;;;;1.60;1.30;;;;;;;-144.43;100.00;64487.81;5033147;28;20104;-65
2022/02/24 08:13:03;;;;;;;2.17;1.73;;;;;;;-144.43;100.00;64487.81;5034378;28;20028;-65
2022/02/24 08:15:28;;;;;;;2.67;1.88;;;;;;;-144.43;100.00;64487.81;5034296;28;20476;-66
2022/02/24 08:17:59;;;;;;;2.78;2.08;;;;;;;-144.43;100.00;64487.81;5034414;28;20040;-66
2022/02/24 08:20:25;;;;;;;3.40;2.75;;;;;;;-144.43;100.00;64487.81;5034438;28;20025;-66
2022/02/24 08:22:51;;;;;;;7.57;3.70;;;;;;;-144.43;100.00;64487.81;5032945;28;20048;-65
2022/02/24 08:25:18;;;;;;;6.18;4.00;;;;;;;-144.43;100.00;64487.81;5016531;28;20021;-66
2022/02/24 08:27:48;;;;;;;5.72;3.78;;;;;;;-144.43;100.00;64487.81;5033013;28;20603;-65
2022/02/24 08:30:17;;;;;;;4.28;3.20;;;;;;;-144.43;100.00;64487.81;5032971;28;20039;-65
2022/02/24 08:32:45;;;;;;;5.97;3.35;;;;;;;-144.43;100.00;64487.81;5016328;28;20032;-65
2022/02/24 08:35:12;;;;;;;6.57;4.80;;;;;;;-144.43;100.00;64487.81;5032799;28;20105;-65
2022/02/24 08:37:39;;;;;;;7.55;3.65;;;;;;;-144.43;100.00;64487.81;5016428;28;20496;-65
2022/02/24 08:40:06;;;;;;;3.65;2.60;;;;;;;-144.43;100.00;64487.81;5033886;28;20377;-65
2022/02/24 08:42:31;;;;;;;3.58;2.63;;;;;;;-144.43;100.00;64487.81;5033542;28;20042;-65
2022/02/24 08:44:56;;;;;;;3.72;2.38;;;;;;;-144.43;100.00;64487.81;5016033;28;20052;-67
2022/02/24 08:47:22;;;;;;;3.17;2.20;;;;;;;-144.43;100.00;64487.81;5033822;28;20025;-64
2022/02/24 08:49:51;;;;;;;4.88;2.30;;;;;;;-144.43;100.00;64487.81;5033590;28;20026;-64
2022/02/24 08:52:17;;;;;;;3.58;2.33;;;;;;;-144.43;100.00;64487.81;5031595;28;20060;-65
2022/02/24 08:54:43;;;;;;;3.00;1.88;;;;;;;-144.43;100.00;64487.81;5032405;28;20059;-65
2022/02/24 08:57:36;;;;;;;3.00;2.22;;;;;;;-144.43;100.00;64487.81;5033527;28;20029;-65
2022/02/24 09:00:05;;;;;;;2.88;2.20;;;;;;;-144.43;100.00;64487.81;5033644;28;20103;-66
2022/02/24 09:02:39;;;;;;;2.67;1.70;;;;;;;-144.43;100.00;64487.81;5033472;28;20500;-65
2022/02/24 09:05:05;;;;;;;2.25;1.98;;;;;;;-144.43;100.00;64487.81;5032123;28;20041;-64
2022/02/24 09:07:30;;;;;;;2.63;1.70;;;;;;;-144.43;100.00;64487.81;5033299;28;20033;-64
2022/02/24 09:09:55;;;;;;;2.35;1.70;;;;;;;-144.43;100.00;64487.81;5016141;28;20037;-64
2022/02/24 09:12:21;;;;;;;4.63;1.77;;;;;;;-144.43;100.00;64487.81;5033068;28;20042;-65
2022/02/24 09:14:49;;;;;;;2.95;1.45;;;;;;;-144.43;100.00;64487.81;5033286;28;20026;-64
2022/02/24 09:17:14;;;;;;;2.25;1.45;;;;;;;-144.43;100.00;64487.81;5029930;28;20067;-65
2022/02/24 09:19:46;;;;;;;2.22;1.35;;;;;;;-144.43;100.00;64487.81;5026619;28;20492;-64
2022/02/24 09:22:14;;;;;;;4.88;1.50;;;;;;;-144.43;100.00;64487.81;5033028;28;20116;-64
2022/02/24 09:24:40;;;;;;;2.50;1.17;;;;;;;-144.43;100.00;64487.81;5031100;28;20030;-65
2022/02/24 09:27:06;;;;;;;3.13;1.48;;;;;;;-144.43;100.00;64487.81;5030495;28;20036;-64
2022/02/24 09:29:33;;;;;;;1.73;1.40;;;;;;;-144.43;100.00;64487.81;5033973;28;20025;-66
2022/02/24 09:32:00;;;;;;;3.50;1.33;;;;;;;-144.43;100.00;64487.81;5040571;28;20151;-66
2022/02/24 09:34:26;;;;;;;1.50;1.30;;;;;;;-144.43;100.00;64487.81;5042634;28;20079;-65
2022/02/24 09:37:17;;;;;;;2.58;1.33;;;;;;;-144.43;100.00;64487.81;5026594;28;20026;-66
2022/02/24 09:39:42;;;;;;;3.05;2.15;;;;;;;-144.43;100.00;64487.81;5014164;28;20114;-65
2022/02/24 09:42:14;;;;;;;3.78;2.53;;;;;;;-144.43;100.00;64487.81;5043914;28;20032;-65
2022/02/24 09:44:39;;;;;;;4.50;2.60;;;;;;;-144.43;100.00;64487.81;5051558;28;20534;-64
2022/02/24 09:47:18;;;;;;;5.32;2.55;;;;;;;-144.43;100.00;64487.81;5043201;28;20025;-66
2022/02/24 09:49:47;;;;;;;7.10;2.83;;;;;;;-144.43;100.00;64487.81;5031191;28;20444;-65
2022/02/24 09:52:22;;;;;;;7.38;2.80;;;;;;;-144.43;100.00;64487.81;5031289;28;20022;-65
2022/02/24 09:54:47;;;;;;;3.60;2.60;;;;;;;-144.43;100.00;64487.81;5032579;28;20033;-65
2022/02/24 09:57:13;;;;;;;5.40;2.63;;;;;;;-144.43;100.00;64487.81;5032360;28;20025;-65
2022/02/24 09:59:38;;;;;;;5.70;2.15;;;;;;;-144.43;100.00;64487.81;5031135;28;20068;-65
2022/02/24 10:02:04;;;;;;;5.82;2.33;;;;;;;-144.43;100.00;64487.81;5030477;28;20025;-65
2022/02/24 10:04:29;;;;;;;3.53;2.45;;;;;;;-144.43;100.00;64487.81;5031543;28;20084;-65
2022/02/24 10:06:58;;;;;;;3.63;2.45;;;;;;;-144.43;100.00;64487.81;5029865;28;20033;-65
2022/02/24 10:09:32;;;;;;;4.35;2.40;;;;;;;-144.43;100.00;64487.81;5032533;28;20436;-65
2022/02/24 10:12:10;;;;;;;4.70;2.25;;;;;;;-144.43;100.00;64487.81;5032425;28;20041;-67
2022/02/24 10:14:39;;;;;;;4.63;2.22;;;;;;;-144.43;100.00;64487.81;5030708;28;20072;-67
2022/02/24 10:17:09;;;;;;;4.90;2.03;;;;;;;-144.43;100.00;64487.81;5032253;28;20499;-65
2022/02/24 10:19:50;;;;;;;4.72;2.20;;;;;;;-144.43;100.00;64487.81;5036114;28;20431;-66
2022/02/24 10:22:26;;;;;;;6.35;2.17;;;;;;;-144.43;100.00;64487.81;5030073;28;20021;-66
2022/02/24 10:25:08;;;;;;;4.80;2.20;;;;;;;-144.43;100.00;64487.81;5030356;28;20076;-66
2022/02/24 10:27:35;;;;;;;2.73;2.53;;;;;;;-144.43;100.00;64487.81;5021874;28;20048;-66
2022/02/24 10:30:13;;;;;;;6.72;1.95;;;;;;;-144.43;100.00;64487.81;5030236;28;20025;-66
2022/02/24 10:32:52;;;;;;;3.58;1.95;;;;;;;-144.43;100.00;64487.81;5032141;28;20414;-66
2022/02/24 10:35:30;;;;;;;3.42;2.25;;;;;;;-144.43;100.00;64487.81;5030583;28;20029;-66
2022/02/24 10:38:03;;;;;;;5.88;2.47;;;;;;;-144.43;100.00;64487.81;5030024;28;20037;-66
2022/02/24 10:40:34;;;;;;;5.75;2.63;;;;;;;-144.43;100.00;64487.81;5032363;28;20025;-65
2022/02/24 10:43:10;;;;;;;5.05;2.70;;;;;;;-144.43;100.00;64487.81;5032427;28;20049;-67
2022/02/24 10:46:17;;;;;;;5.18;2.65;;;;;;;-144.43;100.00;64487.81;5030037;28;20060;-67
2022/02/24 10:48:51;;;;;;;5.82;2.53;;;;;;;-144.43;100.00;64487.81;5036577;28;20092;-67
2022/02/24 10:51:36;;;;;;;7.43;2.70;;;;;;;-144.43;100.00;64487.81;5029285;28;20427;-68
2022/02/24 10:54:13;;;;;;;4.68;2.42;;;;;;;-144.43;100.00;64487.81;5021881;28;20036;-68
2022/02/24 10:56:41;;;;;;;4.90;2.70;;;;;;;-144.43;100.00;64487.81;5025421;28;20021;-67
2022/02/24 10:59:07;;;;;;;5.03;2.63;;;;;;;-144.43;100.00;64487.81;5029936;28;20416;-67
2022/02/24 11:01:35;;;;;;;4.78;2.10;;;;;;;-144.43;100.00;64487.81;5028059;28;20018;-68
2022/02/24 11:04:03;;;;;;;5.13;2.10;;;;;;;-144.43;100.00;64487.81;5029171;28;20025;-68
2022/02/24 11:06:33;;;;;;;3.30;2.10;;;;;;;-144.43;100.00;64487.81;5023934;28;20025;-67
2022/02/24 11:09:08;;;;;;;3.58;1.83;;;;;;;-144.43;100.00;64487.81;5020495;28;20071;-67
2022/02/24 11:11:43;;;;;;;5.18;1.50;;;;;;;-144.43;100.00;64487.81;5028974;28;20075;-68
2022/02/24 11:14:10;;;;;;;2.38;1.70;;;;;;;-144.43;100.00;64487.81;5028513;28;20051;-68
2022/02/24 11:16:39;;;;;;;3.13;1.70;;;;;;;-144.43;100.00;64487.81;5031004;28;20090;-68
2022/02/24 11:19:04;;;;;;;4.00;1.88;;;;;;;-144.43;100.00;64487.81;5029610;28;20037;-67